createdAt,value
2017-12-25T00:00:13.011Z,0
2017-12-25T00:00:53.277Z,0
2017-12-25T00:01:33.851Z,0
2017-12-25T00:02:14.132Z,0
2017-12-25T00:02:54.598Z,0
2017-12-25T00:03:35.160Z,0
2017-12-25T00:04:15.417Z,0
2017-12-25T00:04:55.952Z,0
2017-12-25T00:05:36.357Z,0
2017-12-25T00:06:16.983Z,0
2017-12-25T00:06:57.209Z,0
2017-12-25T00:07:37.550Z,0
2017-12-25T00:08:18.365Z,0
2017-12-25T00:08:58.695Z,0
2017-12-25T00:09:39.268Z,0
2017-12-25T00:10:19.643Z,0
2017-12-25T00:11:02.758Z,0
2017-12-25T00:11:43.229Z,0
2017-12-25T00:12:23.754Z,0
2017-12-25T00:13:04.682Z,0
2017-12-25T00:13:45.667Z,0
2017-12-25T00:14:27.392Z,0
2017-12-25T00:15:09.021Z,0
2017-12-25T00:15:50.056Z,0
2017-12-25T00:16:30.394Z,0
2017-12-25T00:17:10.796Z,0
2017-12-25T00:17:51.274Z,0
2017-12-25T00:18:33.035Z,0
2017-12-25T00:19:13.139Z,0
2017-12-25T00:19:53.593Z,0
2017-12-25T00:20:34.281Z,0
2017-12-25T00:21:14.669Z,0
2017-12-25T00:21:55.422Z,0
2017-12-25T00:22:36.012Z,0
2017-12-25T00:23:16.714Z,0
2017-12-25T00:23:57.702Z,0
2017-12-25T00:24:37.911Z,0
2017-12-25T00:25:18.964Z,0
2017-12-25T00:26:00.328Z,0
2017-12-25T00:26:40.574Z,0
2017-12-25T00:27:21.310Z,0
2017-12-25T00:28:01.670Z,0
2017-12-25T00:28:43.242Z,0
2017-12-25T00:29:24.534Z,0
2017-12-25T00:30:05.011Z,0
2017-12-25T00:32:26.619Z,0
2017-12-25T00:33:07.052Z,0
2017-12-25T00:33:47.615Z,0
2017-12-25T00:34:27.969Z,0
2017-12-25T00:35:08.989Z,0
2017-12-25T00:35:49.468Z,0
2017-12-25T00:36:30.814Z,0
2017-12-25T00:37:11.412Z,0
2017-12-25T00:37:51.839Z,0
2017-12-25T00:38:32.261Z,0
2017-12-25T00:39:12.840Z,0
2017-12-25T00:39:53.107Z,0
2017-12-25T00:40:33.987Z,0
2017-12-25T00:41:14.398Z,0
2017-12-25T00:45:52.619Z,0
2017-12-25T00:46:33.057Z,0
2017-12-25T00:47:14.366Z,0
2017-12-25T00:47:54.901Z,0
2017-12-25T00:48:35.215Z,0
2017-12-25T00:49:16.364Z,0
2017-12-25T00:49:57.122Z,0
2017-12-25T00:50:37.456Z,0
2017-12-25T00:51:17.863Z,0
2017-12-25T00:51:58.363Z,0
2017-12-25T00:52:38.932Z,0
2017-12-25T00:53:19.267Z,0
2017-12-25T00:54:00.215Z,0
2017-12-25T00:54:40.930Z,0
2017-12-25T00:55:21.384Z,0
2017-12-25T00:56:02.936Z,0
2017-12-25T00:56:43.886Z,0
2017-12-25T00:57:24.428Z,0
2017-12-25T00:58:04.536Z,0
2017-12-25T00:58:45.558Z,0
2017-12-25T00:59:26.229Z,0
2017-12-25T01:00:07.018Z,0
2017-12-25T01:00:47.269Z,0
2017-12-25T01:03:22.202Z,0
2017-12-25T01:04:05.056Z,0
2017-12-25T01:04:45.183Z,0
2017-12-25T01:05:25.544Z,0
2017-12-25T01:06:06.023Z,0
2017-12-25T01:06:46.331Z,0
2017-12-25T01:07:26.893Z,0
2017-12-25T01:08:08.262Z,0
2017-12-25T01:08:49.268Z,0
2017-12-25T01:09:29.312Z,0
2017-12-25T01:10:14.478Z,0
2017-12-25T01:10:51.473Z,0
2017-12-25T01:11:31.815Z,0
2017-12-25T01:12:12.333Z,0
2017-12-25T01:12:53.243Z,0
2017-12-25T01:13:33.204Z,0
2017-12-25T01:14:14.568Z,0
2017-12-25T01:14:55.419Z,0
2017-12-25T01:15:36.488Z,0
2017-12-25T01:16:19.008Z,0
2017-12-25T01:16:59.649Z,0
2017-12-25T01:17:40.175Z,0
2017-12-25T01:20:15.176Z,0
2017-12-25T01:20:55.500Z,0
2017-12-25T01:21:36.016Z,0
2017-12-25T01:22:16.451Z,0
2017-12-25T01:22:57.005Z,0
2017-12-25T01:23:37.503Z,0
2017-12-25T01:24:17.799Z,0
2017-12-25T01:24:58.209Z,0
2017-12-25T01:25:38.607Z,0
2017-12-25T01:26:18.944Z,0
2017-12-25T01:26:59.665Z,0
2017-12-25T01:27:40.343Z,0
2017-12-25T01:28:20.692Z,0
2017-12-25T01:29:01.123Z,0
2017-12-25T01:29:41.477Z,0
2017-12-25T01:30:21.976Z,0
2017-12-25T01:31:02.381Z,0
2017-12-25T01:31:43.276Z,0
2017-12-25T01:32:26.705Z,0
2017-12-25T01:33:06.991Z,0
2017-12-25T01:33:47.519Z,0
2017-12-25T01:34:28.200Z,0
2017-12-25T01:35:08.615Z,0
2017-12-25T01:35:50.463Z,0
2017-12-25T01:36:32.044Z,0
2017-12-25T01:37:12.806Z,0
2017-12-25T01:37:53.098Z,0
2017-12-25T01:38:33.518Z,0
2017-12-25T01:39:14.827Z,0
2017-12-25T01:39:55.089Z,0
2017-12-25T01:43:56.363Z,0
2017-12-25T01:44:36.153Z,0
2017-12-25T01:45:18.134Z,0
2017-12-25T01:45:58.660Z,0
2017-12-25T01:46:39.307Z,0
2017-12-25T01:49:10.691Z,0
2017-12-25T01:49:51.734Z,0
2017-12-25T01:50:32.528Z,0
2017-12-25T01:51:13.018Z,0
2017-12-25T01:51:54.144Z,0
2017-12-25T01:52:34.469Z,0
2017-12-25T01:53:14.887Z,0
2017-12-25T01:53:55.387Z,0
2017-12-25T01:54:35.741Z,0
2017-12-25T01:55:16.306Z,0
2017-12-25T01:55:59.536Z,0
2017-12-25T01:56:39.864Z,0
2017-12-25T01:57:20.253Z,0
2017-12-25T01:58:00.600Z,0
2017-12-25T01:58:41.066Z,0
2017-12-25T01:59:21.616Z,0
2017-12-25T02:00:02.331Z,0
2017-12-25T02:00:42.978Z,0
2017-12-25T02:01:23.609Z,0
2017-12-25T02:02:05.469Z,0
2017-12-25T02:02:45.658Z,0
2017-12-25T02:03:26.103Z,0
2017-12-25T02:04:06.621Z,0
2017-12-25T02:04:46.921Z,0
2017-12-25T02:05:27.313Z,0
2017-12-25T02:06:07.703Z,0
2017-12-25T02:06:48.163Z,0
2017-12-25T02:07:28.710Z,0
2017-12-25T02:08:09.097Z,0
2017-12-25T02:08:49.486Z,0
2017-12-25T02:09:29.940Z,0
2017-12-25T02:10:12.217Z,0
2017-12-25T02:10:51.447Z,0
2017-12-25T02:11:31.716Z,0
2017-12-25T02:12:12.062Z,0
2017-12-25T02:12:52.533Z,0
2017-12-25T02:13:33.720Z,0
2017-12-25T02:14:13.981Z,0
2017-12-25T02:14:55.020Z,0
2017-12-25T02:15:35.243Z,0
2017-12-25T02:16:16.266Z,0
2017-12-25T02:16:57.440Z,0
2017-12-25T02:17:38.223Z,0
2017-12-25T02:18:18.999Z,0
2017-12-25T02:18:59.638Z,0
2017-12-25T02:19:40.403Z,0
2017-12-25T02:20:20.584Z,0
2017-12-25T02:21:01.078Z,0
2017-12-25T02:21:41.959Z,0
2017-12-25T02:22:22.298Z,0
2017-12-25T02:23:02.744Z,0
2017-12-25T02:23:43.218Z,0
2017-12-25T02:24:23.640Z,0
2017-12-25T02:25:04.807Z,0
2017-12-25T02:25:45.425Z,0
2017-12-25T02:26:26.544Z,0
2017-12-25T02:27:07.187Z,0
2017-12-25T02:27:47.696Z,0
2017-12-25T02:28:28.558Z,0
2017-12-25T02:29:08.985Z,0
2017-12-25T02:29:50.280Z,0
2017-12-25T02:30:31.330Z,0
2017-12-25T02:31:11.702Z,0
2017-12-25T02:31:52.221Z,0
2017-12-25T02:32:32.547Z,0
2017-12-25T02:37:32.640Z,0
2017-12-25T02:38:13.022Z,0
2017-12-25T02:38:53.800Z,0
2017-12-25T02:39:34.359Z,0
2017-12-25T02:40:14.921Z,0
2017-12-25T02:40:55.448Z,0
2017-12-25T02:41:36.141Z,0
2017-12-25T02:42:16.422Z,0
2017-12-25T02:42:56.835Z,0
2017-12-25T02:43:37.197Z,0
2017-12-25T02:44:18.328Z,0
2017-12-25T02:44:59.100Z,0
2017-12-25T02:45:39.558Z,0
2017-12-25T02:46:19.921Z,0
2017-12-25T02:47:00.416Z,0
2017-12-25T02:47:40.808Z,0
2017-12-25T02:48:21.239Z,0
2017-12-25T02:49:01.749Z,0
2017-12-25T02:49:42.145Z,0
2017-12-25T02:50:22.467Z,0
2017-12-25T02:51:02.945Z,0
2017-12-25T02:51:43.428Z,0
2017-12-25T02:52:23.768Z,0
2017-12-25T02:53:04.175Z,0
2017-12-25T02:53:44.518Z,0
2017-12-25T02:54:24.965Z,0
2017-12-25T02:55:05.487Z,0
2017-12-25T02:55:45.719Z,0
2017-12-25T02:56:26.150Z,0
2017-12-25T02:57:07.444Z,0
2017-12-25T02:57:47.276Z,0
2017-12-25T02:58:27.990Z,0
2017-12-25T02:59:08.543Z,0
2017-12-25T02:59:48.933Z,0
2017-12-25T03:00:29.312Z,0
2017-12-25T03:01:09.871Z,0
2017-12-25T03:01:50.390Z,0
2017-12-25T03:02:30.767Z,0
2017-12-25T03:03:11.194Z,0
2017-12-25T03:05:29.637Z,0
2017-12-25T03:06:10.039Z,0
2017-12-25T03:06:50.150Z,0
2017-12-25T03:07:30.827Z,0
2017-12-25T03:08:11.001Z,0
2017-12-25T03:08:51.378Z,0
2017-12-25T03:09:31.817Z,0
2017-12-25T03:10:12.285Z,0
2017-12-25T03:10:53.161Z,0
2017-12-25T03:11:35.075Z,0
2017-12-25T03:12:15.577Z,0
2017-12-25T03:12:55.833Z,0
2017-12-25T03:13:36.774Z,0
2017-12-25T03:14:16.954Z,0
2017-12-25T03:14:57.292Z,0
2017-12-25T03:15:37.669Z,0
2017-12-25T03:16:18.305Z,0
2017-12-25T03:16:58.570Z,0
2017-12-25T03:17:38.892Z,0
2017-12-25T03:18:19.353Z,0
2017-12-25T03:19:01.016Z,0
2017-12-25T03:19:41.333Z,0
2017-12-25T03:20:22.325Z,0
2017-12-25T03:21:03.808Z,0
2017-12-25T03:21:44.160Z,0
2017-12-25T03:22:25.030Z,0
2017-12-25T03:23:05.099Z,0
2017-12-25T03:23:45.683Z,0
2017-12-25T03:24:26.007Z,0
2017-12-25T03:25:07.088Z,0
2017-12-25T03:25:47.043Z,0
2017-12-25T03:26:27.525Z,0
2017-12-25T03:27:07.966Z,0
2017-12-25T03:27:49.845Z,0
2017-12-25T03:28:30.274Z,0
2017-12-25T03:29:10.735Z,0
2017-12-25T03:29:51.151Z,0
2017-12-25T03:30:31.601Z,0
2017-12-25T03:31:12.127Z,0
2017-12-25T03:31:52.433Z,0
2017-12-25T03:32:33.024Z,0
2017-12-25T03:33:13.374Z,0
2017-12-25T03:33:53.747Z,0
2017-12-25T03:34:34.144Z,0
2017-12-25T03:35:14.566Z,0
2017-12-25T03:35:55.005Z,0
2017-12-25T03:36:35.537Z,0
2017-12-25T03:37:16.168Z,0
2017-12-25T03:37:56.720Z,0
2017-12-25T03:38:37.442Z,0
2017-12-25T03:39:18.122Z,0
2017-12-25T03:39:58.419Z,0
2017-12-25T03:40:38.830Z,0
2017-12-25T03:41:19.240Z,0
2017-12-25T03:41:59.735Z,0
2017-12-25T03:42:40.139Z,0
2017-12-25T03:43:20.626Z,0
2017-12-25T03:44:01.023Z,0
2017-12-25T03:44:41.397Z,0
2017-12-25T03:45:21.799Z,0
2017-12-25T03:46:02.253Z,0
2017-12-25T03:46:42.677Z,0
2017-12-25T03:47:23.091Z,0
2017-12-25T03:48:03.509Z,0
2017-12-25T03:48:43.872Z,0
2017-12-25T03:49:24.340Z,0
2017-12-25T03:50:04.696Z,0
2017-12-25T03:50:45.122Z,0
2017-12-25T03:51:25.534Z,0
2017-12-25T03:52:05.965Z,0
2017-12-25T03:52:46.325Z,0
2017-12-25T03:53:26.693Z,0
2017-12-25T03:54:07.244Z,0
2017-12-25T03:54:47.512Z,0
2017-12-25T03:55:27.944Z,0
2017-12-25T03:56:08.437Z,0
2017-12-25T03:56:48.776Z,0
2017-12-25T03:57:29.121Z,0
2017-12-25T03:58:09.959Z,0
2017-12-25T03:58:50.050Z,0
2017-12-25T03:59:30.404Z,0
2017-12-25T04:00:10.860Z,0
2017-12-25T04:00:51.195Z,0
2017-12-25T04:01:32.273Z,0
2017-12-25T04:42:08.669Z,0
2017-12-25T04:42:49.072Z,0
2017-12-25T04:43:29.481Z,0
2017-12-25T04:44:09.896Z,0
2017-12-25T04:44:50.252Z,0
2017-12-25T04:45:30.674Z,0
2017-12-25T04:46:11.071Z,0
2017-12-25T04:46:51.464Z,0
2017-12-25T04:47:31.860Z,0
2017-12-25T04:48:12.332Z,0
2017-12-25T04:48:53.240Z,0
2017-12-25T04:49:33.895Z,0
2017-12-25T04:50:14.490Z,0
2017-12-25T04:50:54.734Z,0
2017-12-25T04:51:35.156Z,0
2017-12-25T04:52:15.586Z,0
2017-12-25T04:52:55.977Z,0
2017-12-25T04:53:36.444Z,0
2017-12-25T04:54:16.901Z,0
2017-12-25T04:54:57.304Z,0
2017-12-25T04:55:37.801Z,0
2017-12-25T04:56:18.408Z,0
2017-12-25T04:56:59.078Z,0
2017-12-25T04:57:39.619Z,0
2017-12-25T04:58:20.063Z,0
2017-12-25T04:59:00.514Z,0
2017-12-25T04:59:41.215Z,0
2017-12-25T05:00:21.779Z,0
2017-12-25T05:01:02.566Z,0
2017-12-25T05:01:44.116Z,0
2017-12-25T05:02:25.024Z,0
2017-12-25T05:03:05.428Z,0
2017-12-25T05:03:47.807Z,0
2017-12-25T05:04:28.489Z,0
2017-12-25T05:05:08.823Z,0
2017-12-25T05:05:49.211Z,0
2017-12-25T05:06:30.154Z,0
2017-12-25T05:07:11.103Z,0
2017-12-25T05:07:51.472Z,0
2017-12-25T05:08:31.848Z,0
2017-12-25T05:09:12.263Z,0
2017-12-25T05:09:52.655Z,0
2017-12-25T05:10:33.174Z,0
2017-12-25T05:11:13.405Z,0
2017-12-25T05:11:53.828Z,0
2017-12-25T05:12:34.680Z,0
2017-12-25T05:13:15.042Z,0
2017-12-25T05:13:55.277Z,0
2017-12-25T05:14:35.801Z,0
2017-12-25T05:15:16.041Z,0
2017-12-25T05:15:56.437Z,0
2017-12-25T05:16:36.875Z,0
2017-12-25T05:17:17.297Z,0
2017-12-25T05:17:57.695Z,0
2017-12-25T05:18:38.077Z,0
2017-12-25T05:19:18.702Z,0
2017-12-25T05:19:59.105Z,0
2017-12-25T05:20:39.707Z,0
2017-12-25T05:21:20.274Z,0
2017-12-25T05:22:01.014Z,0
2017-12-25T05:22:42.370Z,0
2017-12-25T05:23:23.120Z,0
2017-12-25T05:24:03.521Z,0
2017-12-25T05:24:44.144Z,0
2017-12-25T05:25:24.692Z,0
2017-12-25T05:26:04.921Z,0
2017-12-25T05:26:45.515Z,0
2017-12-25T05:27:25.788Z,0
2017-12-25T05:28:06.248Z,0
2017-12-25T05:28:46.762Z,0
2017-12-25T05:29:27.216Z,0
2017-12-25T05:30:07.485Z,0
2017-12-25T05:30:48.095Z,0
2017-12-25T05:31:28.332Z,0
2017-12-25T05:32:08.740Z,0
2017-12-25T05:32:49.133Z,0
2017-12-25T05:33:29.524Z,0
2017-12-25T05:34:09.925Z,0
2017-12-25T05:34:50.376Z,0
2017-12-25T05:35:31.312Z,0
2017-12-25T05:36:11.400Z,0
2017-12-25T05:36:51.848Z,0
2017-12-25T05:37:32.245Z,0
2017-12-25T05:38:12.639Z,0
2017-12-25T05:40:31.276Z,0
2017-12-25T05:41:11.488Z,0
2017-12-25T05:41:51.927Z,0
2017-12-25T05:42:32.395Z,0
2017-12-25T05:43:12.762Z,0
2017-12-25T05:43:53.174Z,0
2017-12-25T05:44:33.585Z,0
2017-12-25T05:45:15.021Z,0
2017-12-25T05:45:55.496Z,0
2017-12-25T05:46:35.889Z,0
2017-12-25T05:47:16.355Z,0
2017-12-25T05:47:57.262Z,0
2017-12-25T05:48:37.919Z,0
2017-12-25T05:49:18.866Z,0
2017-12-25T05:49:59.551Z,0
2017-12-25T05:50:40.371Z,0
2017-12-25T05:51:20.968Z,0
2017-12-25T05:52:01.333Z,0
2017-12-25T05:52:42.003Z,0
2017-12-25T05:53:22.178Z,0
2017-12-25T05:54:03.266Z,0
2017-12-25T05:54:43.661Z,0
2017-12-25T05:55:24.568Z,0
2017-12-25T05:56:05.127Z,0
2017-12-25T05:56:47.004Z,0
2017-12-25T05:57:28.072Z,0
2017-12-25T05:58:09.066Z,0
2017-12-25T05:58:49.646Z,0
2017-12-25T05:59:30.357Z,0
2017-12-25T06:00:10.786Z,0
2017-12-25T06:00:51.216Z,0
2017-12-25T06:01:31.627Z,0
2017-12-25T06:02:12.020Z,0
2017-12-25T06:02:52.908Z,0
2017-12-25T06:03:33.466Z,0
2017-12-25T06:04:13.869Z,0
2017-12-25T06:06:52.636Z,0
2017-12-25T06:07:33.181Z,0
2017-12-25T06:08:13.766Z,0
2017-12-25T06:08:54.393Z,0
2017-12-25T06:09:35.098Z,0
2017-12-25T06:10:15.991Z,0
2017-12-25T06:10:56.391Z,0
2017-12-25T06:11:36.898Z,0
2017-12-25T06:12:17.898Z,0
2017-12-25T06:12:57.901Z,0
2017-12-25T06:13:38.234Z,0
2017-12-25T06:14:18.735Z,0
2017-12-25T06:14:59.072Z,0
2017-12-25T06:15:39.428Z,0
2017-12-25T06:16:19.861Z,0
2017-12-25T06:17:00.328Z,0
2017-12-25T06:17:40.694Z,0
2017-12-25T06:18:21.148Z,0
2017-12-25T06:19:01.436Z,0
2017-12-25T06:19:41.862Z,0
2017-12-25T06:20:22.225Z,0
2017-12-25T06:21:02.615Z,0
2017-12-25T06:21:42.988Z,0
2017-12-25T06:22:23.366Z,0
2017-12-25T06:23:03.790Z,0
2017-12-25T06:23:44.612Z,0
2017-12-25T06:24:25.118Z,0
2017-12-25T06:25:05.469Z,0
2017-12-25T06:25:45.841Z,0
2017-12-25T06:26:26.243Z,0
2017-12-25T06:27:06.632Z,0
2017-12-25T06:27:47.114Z,0
2017-12-25T06:28:27.447Z,0
2017-12-25T06:29:07.922Z,0
2017-12-25T06:29:48.363Z,0
2017-12-25T06:30:28.730Z,0
2017-12-25T06:31:09.137Z,0
2017-12-25T06:31:49.924Z,0
2017-12-25T06:32:30.273Z,0
2017-12-25T06:33:11.320Z,0
2017-12-25T06:33:51.935Z,0
2017-12-25T06:34:32.386Z,0
2017-12-25T06:35:12.804Z,0
2017-12-25T06:35:53.204Z,0
2017-12-25T06:36:33.604Z,0
2017-12-25T06:37:14.845Z,0
2017-12-25T06:37:55.770Z,0
2017-12-25T06:38:35.904Z,0
2017-12-25T06:39:16.765Z,0
2017-12-25T06:39:57.644Z,0
2017-12-25T06:40:38.037Z,0
2017-12-25T06:41:18.818Z,0
2017-12-25T06:41:59.179Z,0
2017-12-25T06:42:40.240Z,0
2017-12-25T06:43:20.729Z,0
2017-12-25T06:44:01.142Z,0
2017-12-25T06:44:41.956Z,0
2017-12-25T06:45:22.352Z,0
2017-12-25T06:46:03.304Z,0
2017-12-25T06:46:43.778Z,0
2017-12-25T06:47:24.428Z,0
2017-12-25T06:48:04.746Z,0
2017-12-25T06:48:45.162Z,0
2017-12-25T06:49:25.566Z,0
2017-12-25T06:50:06.055Z,0
2017-12-25T06:50:47.476Z,0
2017-12-25T06:51:27.829Z,0
2017-12-25T06:52:08.576Z,0
2017-12-25T06:52:48.720Z,0
2017-12-25T06:53:29.114Z,0
2017-12-25T06:54:09.554Z,0
2017-12-25T06:54:51.745Z,0
2017-12-25T06:55:32.100Z,0
2017-12-25T06:56:12.969Z,0
2017-12-25T06:56:53.263Z,0
2017-12-25T06:57:33.655Z,0
2017-12-25T06:58:14.166Z,0
2017-12-25T06:58:54.531Z,0
2017-12-25T06:59:34.988Z,0
2017-12-25T07:00:15.314Z,0
2017-12-25T07:00:55.850Z,0
2017-12-25T07:01:36.391Z,0
2017-12-25T07:02:16.654Z,0
2017-12-25T07:02:57.126Z,0
2017-12-25T07:03:37.448Z,0
2017-12-25T07:04:17.843Z,0
2017-12-25T07:04:58.300Z,0
2017-12-25T07:05:38.613Z,0
2017-12-25T07:06:19.027Z,0
2017-12-25T07:06:59.456Z,0
2017-12-25T07:07:39.841Z,0
2017-12-25T07:08:20.358Z,0
2017-12-25T07:09:00.605Z,0
2017-12-25T07:09:41.123Z,0
2017-12-25T07:10:21.698Z,0
2017-12-25T07:11:02.131Z,0
2017-12-25T07:11:42.520Z,0
2017-12-25T07:12:22.946Z,0
2017-12-25T07:13:03.590Z,0
2017-12-25T07:13:45.780Z,0
2017-12-25T07:14:25.948Z,0
2017-12-25T07:15:06.357Z,0
2017-12-25T07:15:46.739Z,0
2017-12-25T07:16:27.113Z,0
2017-12-25T07:17:08.022Z,0
2017-12-25T07:17:48.084Z,0
2017-12-25T07:18:28.772Z,0
2017-12-25T07:19:09.997Z,0
2017-12-25T07:19:50.397Z,0
2017-12-25T07:20:30.794Z,0
2017-12-25T07:21:11.218Z,0
2017-12-25T07:21:51.934Z,0
2017-12-25T07:22:32.354Z,0
2017-12-25T07:23:13.149Z,0
2017-12-25T07:23:53.643Z,0
2017-12-25T07:24:34.000Z,0
2017-12-25T07:25:14.394Z,0
2017-12-25T07:25:54.830Z,0
2017-12-25T07:26:35.257Z,0
2017-12-25T07:27:15.736Z,0
2017-12-25T07:27:56.323Z,0
2017-12-25T07:28:37.424Z,0
2017-12-25T07:29:18.307Z,0
2017-12-25T07:29:58.708Z,0
2017-12-25T07:30:39.110Z,0
2017-12-25T07:31:19.542Z,0
2017-12-25T07:31:59.861Z,0
2017-12-25T07:32:40.296Z,0
2017-12-25T07:33:20.721Z,0
2017-12-25T07:34:01.113Z,0
2017-12-25T07:34:41.606Z,0
2017-12-25T07:35:22.034Z,0
2017-12-25T07:36:02.500Z,0
2017-12-25T07:36:42.824Z,0
2017-12-25T07:37:23.563Z,0
2017-12-25T07:38:04.081Z,0
2017-12-25T07:38:44.439Z,0
2017-12-25T07:39:24.804Z,0
2017-12-25T07:40:05.297Z,0
2017-12-25T07:40:45.974Z,0
2017-12-25T07:41:26.398Z,0
2017-12-25T07:42:06.894Z,0
2017-12-25T07:42:47.346Z,0
2017-12-25T07:43:27.894Z,0
2017-12-25T07:44:08.258Z,0
2017-12-25T07:44:48.945Z,0
2017-12-25T07:45:29.372Z,0
2017-12-25T07:46:09.715Z,0
2017-12-25T07:46:50.125Z,0
2017-12-25T07:47:30.622Z,0
2017-12-25T07:48:11.351Z,0
2017-12-25T07:48:52.411Z,0
2017-12-25T07:49:32.435Z,0
2017-12-25T07:50:13.805Z,0
2017-12-25T07:50:54.179Z,0
2017-12-25T07:51:34.641Z,0
2017-12-25T07:52:15.465Z,0
2017-12-25T07:52:56.567Z,0
2017-12-25T07:53:37.450Z,0
2017-12-25T07:54:17.580Z,0
2017-12-25T07:54:57.946Z,0
2017-12-25T07:55:38.459Z,0
2017-12-25T07:56:18.951Z,0
2017-12-25T07:56:59.418Z,0
2017-12-25T07:57:39.852Z,0
2017-12-25T07:58:20.176Z,0
2017-12-25T07:59:00.620Z,0
2017-12-25T07:59:40.975Z,0
2017-12-25T08:00:21.382Z,0
2017-12-25T08:03:01.838Z,0
2017-12-25T08:03:42.231Z,0
2017-12-25T08:04:22.739Z,0
2017-12-25T08:05:03.066Z,0
2017-12-25T08:05:43.502Z,0
2017-12-25T08:06:24.071Z,0
2017-12-25T08:07:04.517Z,0
2017-12-25T08:07:44.928Z,0
2017-12-25T08:08:25.476Z,0
2017-12-25T08:09:05.835Z,0
2017-12-25T08:09:46.243Z,0
2017-12-25T08:10:26.624Z,0
2017-12-25T08:11:07.028Z,0
2017-12-25T08:11:47.466Z,0
2017-12-25T08:12:27.938Z,0
2017-12-25T08:13:08.421Z,0
2017-12-25T08:13:48.695Z,0
2017-12-25T08:14:29.372Z,0
2017-12-25T08:15:09.650Z,0
2017-12-25T08:15:50.070Z,0
2017-12-25T08:16:30.520Z,0
2017-12-25T08:17:10.996Z,0
2017-12-25T08:17:51.376Z,0
2017-12-25T08:18:31.895Z,0
2017-12-25T08:19:12.276Z,0
2017-12-25T08:19:52.673Z,0
2017-12-25T08:20:33.111Z,0
2017-12-25T08:21:13.487Z,0
2017-12-25T08:21:53.924Z,0
2017-12-25T08:22:34.278Z,0
2017-12-25T08:23:14.886Z,0
2017-12-25T08:23:55.156Z,0
2017-12-25T08:24:35.557Z,0
2017-12-25T08:25:15.937Z,0
2017-12-25T08:25:56.472Z,0
2017-12-25T08:26:36.815Z,0
2017-12-25T08:27:17.331Z,0
2017-12-25T08:27:57.676Z,0
2017-12-25T08:28:38.188Z,0
2017-12-25T08:29:18.546Z,0
2017-12-25T08:30:01.858Z,0
2017-12-25T08:30:42.404Z,0
2017-12-25T08:31:23.128Z,0
2017-12-25T08:34:04.790Z,0
2017-12-25T08:34:45.380Z,0
2017-12-25T08:35:25.748Z,0
2017-12-25T08:36:06.674Z,0
2017-12-25T08:36:47.262Z,0
2017-12-25T08:37:27.720Z,0
2017-12-25T08:38:08.113Z,0
2017-12-25T08:38:48.474Z,0
2017-12-25T08:39:28.924Z,0
2017-12-25T08:40:09.259Z,0
2017-12-25T08:40:49.674Z,0
2017-12-25T08:41:30.828Z,0
2017-12-25T08:42:10.809Z,0
2017-12-25T08:42:51.404Z,0
2017-12-25T08:43:31.629Z,0
2017-12-25T08:44:12.049Z,5
2017-12-25T08:44:52.538Z,5
2017-12-25T08:45:32.883Z,5
2017-12-25T08:46:13.310Z,5
2017-12-25T08:46:53.717Z,5
2017-12-25T08:47:34.115Z,5
2017-12-25T08:48:14.491Z,5
2017-12-25T08:48:55.093Z,5
2017-12-25T08:49:35.336Z,0
2017-12-25T08:50:15.779Z,0
2017-12-25T08:50:56.184Z,0
2017-12-25T08:51:36.635Z,0
2017-12-25T08:52:17.083Z,0
2017-12-25T08:52:57.473Z,0
2017-12-25T08:53:37.851Z,0
2017-12-25T08:54:18.291Z,0
2017-12-25T08:54:58.632Z,0
2017-12-25T08:55:39.082Z,0
2017-12-25T08:56:19.541Z,0
2017-12-25T08:56:59.910Z,0
2017-12-25T08:57:40.316Z,5
2017-12-25T08:58:20.709Z,5
2017-12-25T08:59:01.123Z,5
2017-12-25T08:59:41.483Z,5
2017-12-25T09:00:21.945Z,5
2017-12-25T09:01:02.272Z,5
2017-12-25T09:01:42.704Z,5
2017-12-25T09:02:23.134Z,5
2017-12-25T09:03:03.496Z,5
2017-12-25T09:03:43.887Z,5
2017-12-25T09:04:24.305Z,5
2017-12-25T09:05:04.677Z,5
2017-12-25T09:05:45.085Z,5
2017-12-25T09:06:25.481Z,5
2017-12-25T09:07:05.874Z,5
2017-12-25T09:07:46.238Z,5
2017-12-25T09:08:26.593Z,5
2017-12-25T09:09:07.055Z,5
2017-12-25T09:09:47.392Z,5
2017-12-25T09:10:27.870Z,5
2017-12-25T09:11:08.310Z,5
2017-12-25T09:11:48.646Z,5
2017-12-25T09:12:29.040Z,5
2017-12-25T09:13:09.423Z,5
2017-12-25T09:13:49.864Z,5
2017-12-25T09:14:30.288Z,5
2017-12-25T09:15:10.622Z,5
2017-12-25T09:15:51.010Z,5
2017-12-25T09:16:31.478Z,5
2017-12-25T09:17:11.811Z,5
2017-12-25T09:17:52.153Z,5
2017-12-25T09:18:32.609Z,5
2017-12-25T09:19:13.097Z,5
2017-12-25T09:19:53.479Z,5
2017-12-25T09:20:33.753Z,5
2017-12-25T09:21:14.248Z,5
2017-12-25T09:21:54.595Z,5
2017-12-25T09:22:35.042Z,5
2017-12-25T09:23:15.371Z,5
2017-12-25T09:23:55.824Z,5
2017-12-25T09:24:36.233Z,5
2017-12-25T09:25:16.578Z,5
2017-12-25T09:25:57.019Z,5
2017-12-25T09:26:37.473Z,5
2017-12-25T09:27:17.808Z,5
2017-12-25T09:27:58.225Z,5
2017-12-25T09:28:38.634Z,5
2017-12-25T09:29:19.194Z,5
2017-12-25T09:29:59.597Z,5
2017-12-25T09:30:39.940Z,10
2017-12-25T09:31:20.389Z,5
2017-12-25T09:32:00.688Z,5
2017-12-25T09:32:41.128Z,5
2017-12-25T09:33:21.465Z,5
2017-12-25T09:34:01.945Z,5
2017-12-25T09:34:42.284Z,5
2017-12-25T09:35:23.164Z,5
2017-12-25T09:36:03.621Z,5
2017-12-25T09:36:43.907Z,5
2017-12-25T09:37:24.339Z,5
2017-12-25T09:38:04.683Z,5
2017-12-25T09:38:45.098Z,5
2017-12-25T09:39:25.479Z,10
2017-12-25T09:40:05.923Z,10
2017-12-25T09:40:46.337Z,10
2017-12-25T09:41:26.639Z,10
2017-12-25T09:42:07.045Z,10
2017-12-25T09:42:47.495Z,10
2017-12-25T09:43:27.895Z,10
2017-12-25T09:44:08.386Z,10
2017-12-25T09:44:48.747Z,5
2017-12-25T09:45:29.197Z,5
2017-12-25T09:46:09.565Z,5
2017-12-25T09:46:49.983Z,5
2017-12-25T09:47:30.296Z,5
2017-12-25T09:48:10.716Z,5
2017-12-25T09:48:51.150Z,5
2017-12-25T09:51:11.128Z,5
2017-12-25T09:51:51.500Z,10
2017-12-25T09:52:31.883Z,10
2017-12-25T09:53:12.286Z,10
2017-12-25T09:53:55.427Z,10
2017-12-25T09:54:35.172Z,10
2017-12-25T09:55:15.674Z,10
2017-12-25T09:55:56.181Z,10
2017-12-25T09:56:38.511Z,10
2017-12-25T09:57:18.862Z,10
2017-12-25T09:57:59.229Z,10
2017-12-25T09:58:39.674Z,10
2017-12-25T09:59:20.112Z,10
2017-12-25T10:00:00.554Z,10
2017-12-25T10:00:40.940Z,10
2017-12-25T10:01:21.485Z,10
2017-12-25T10:02:01.884Z,10
2017-12-25T10:02:42.247Z,10
2017-12-25T10:03:22.655Z,10
2017-12-25T10:42:12.785Z,20
2017-12-25T10:43:01.643Z,15
2017-12-25T10:43:52.299Z,20
2017-12-25T10:44:41.165Z,20
2017-12-25T10:45:30.528Z,20
2017-12-25T10:49:07.850Z,25
2017-12-25T10:49:48.304Z,25
2017-12-25T10:50:29.486Z,30
2017-12-25T10:51:10.056Z,30
2017-12-25T10:51:51.734Z,40
2017-12-25T10:52:32.196Z,30
2017-12-25T10:53:13.052Z,30
2017-12-25T10:53:53.481Z,30
2017-12-25T10:54:33.816Z,35
2017-12-25T10:55:14.497Z,30
2017-12-25T10:55:56.922Z,30
2017-12-25T10:56:40.172Z,30
2017-12-25T10:57:21.011Z,30
2017-12-25T10:58:02.186Z,35
2017-12-25T10:58:42.684Z,35
2017-12-25T10:59:25.038Z,35
2017-12-25T11:00:09.576Z,35
2017-12-25T11:00:50.199Z,40
2017-12-25T11:01:32.157Z,40
2017-12-25T11:02:14.667Z,40
2017-12-25T11:02:54.423Z,40
2017-12-25T11:03:34.957Z,40
2017-12-25T11:04:15.270Z,40
2017-12-25T11:04:56.944Z,40
2017-12-25T11:05:38.496Z,35
2017-12-25T11:06:18.929Z,35
2017-12-25T11:06:59.286Z,35
2017-12-25T11:07:39.712Z,35
2017-12-25T11:08:21.962Z,35
2017-12-25T11:09:02.537Z,35
2017-12-25T11:09:46.702Z,35
2017-12-25T11:11:11.022Z,40
2017-12-25T11:11:52.044Z,40
2017-12-25T11:12:32.385Z,50
2017-12-25T11:13:12.813Z,45
2017-12-25T11:13:54.382Z,45
2017-12-25T11:14:35.023Z,40
2017-12-25T11:15:15.253Z,40
2017-12-25T11:15:56.270Z,35
2017-12-25T11:16:36.761Z,40
2017-12-25T11:17:17.240Z,40
2017-12-25T11:17:58.698Z,40
2017-12-25T11:18:40.129Z,45
2017-12-25T11:19:20.403Z,45
2017-12-25T11:20:01.380Z,45
2017-12-25T11:20:42.333Z,40
2017-12-25T11:21:23.012Z,35
2017-12-25T11:22:03.385Z,35
2017-12-25T11:22:43.905Z,35
2017-12-25T11:23:24.329Z,35
2017-12-25T11:24:05.373Z,35
2017-12-25T11:24:45.364Z,35
2017-12-25T11:25:26.043Z,35
2017-12-25T11:26:06.750Z,35
2017-12-25T11:26:51.185Z,35
2017-12-25T11:27:32.723Z,35
2017-12-25T11:28:13.667Z,35
2017-12-25T11:28:56.617Z,35
2017-12-25T11:29:37.116Z,35
2017-12-25T11:30:17.493Z,35
2017-12-25T11:30:57.898Z,35
2017-12-25T11:31:47.667Z,35
2017-12-25T11:32:28.660Z,35
2017-12-25T11:33:09.132Z,35
2017-12-25T11:33:49.713Z,35
2017-12-25T11:34:32.254Z,35
2017-12-25T11:35:12.636Z,35
2017-12-25T11:35:53.409Z,30
2017-12-25T11:36:33.683Z,30
2017-12-25T11:37:14.667Z,30
2017-12-25T11:37:56.092Z,35
2017-12-25T11:38:40.919Z,30
2017-12-25T11:39:22.767Z,30
2017-12-25T11:40:03.697Z,30
2017-12-25T11:40:43.988Z,25
2017-12-25T11:41:25.549Z,25
2017-12-25T11:42:06.126Z,25
2017-12-25T11:42:48.394Z,25
2017-12-25T11:43:28.853Z,30
2017-12-25T11:44:09.229Z,30
2017-12-25T11:44:51.715Z,35
2017-12-25T11:45:33.642Z,30
2017-12-25T11:46:23.081Z,30
2017-12-25T11:47:03.143Z,30
2017-12-25T11:47:43.986Z,30
2017-12-25T11:48:28.278Z,30
2017-12-25T11:49:09.221Z,30
2017-12-25T11:49:50.445Z,30